Time;durP1;ratioP1;P1;durP2;ratioP2;P2;SDS_P1;SDS_P2;PMS_P1;PMS_P2;Temp;Humidity;BMP_temperature;BMP_pressure;BME280_temperature;BME280_humidity;BME280_pressure;Samples;Min_cycle;Max_cycle;Signal;HPM_P1;HPM_P2
2021/12/26 00:02:32;;;;;;;0.90;0.90;;;;;;;;;;7329257;19;162151;-15
2021/12/26 00:05:04;;;;;;;0.90;0.90;;;;;;;;;;7329648;19;154010;-15
2021/12/26 00:07:35;;;;;;;0.93;0.93;;;;;;;;;;7329493;19;153601;-14
2021/12/26 00:10:08;;;;;;;1.00;1.00;;;;;;;;;;7329152;19;161768;-15
2021/12/26 00:12:40;;;;;;;0.75;0.75;;;;;;;;;;7329052;19;162508;-15
2021/12/26 00:15:14;;;;;;;0.80;0.80;;;;;;;;;;7329257;19;154227;-14
2021/12/26 00:17:45;;;;;;;1.08;1.08;;;;;;;;;;7326550;19;153495;-14
2021/12/26 00:20:18;;;;;;;1.00;1.00;;;;;;;;;;7327737;19;161842;-15
2021/12/26 00:22:49;;;;;;;0.90;0.90;;;;;;;;;;7328537;19;162382;-15
2021/12/26 00:25:21;;;;;;;1.10;1.10;;;;;;;;;;7331247;19;154629;-14
2021/12/26 00:27:52;;;;;;;0.93;0.93;;;;;;;;;;7331573;19;153263;-14
2021/12/26 00:30:26;;;;;;;1.00;1.00;;;;;;;;;;7330206;19;161923;-14
2021/12/26 00:32:57;;;;;;;0.90;0.90;;;;;;;;;;7331752;19;162454;-14
2021/12/26 00:35:29;;;;;;;0.88;0.88;;;;;;;;;;7331470;19;154165;-15
2021/12/26 00:38:02;;;;;;;1.00;1.00;;;;;;;;;;7327566;19;153619;-13
2021/12/26 00:40:34;;;;;;;1.00;1.00;;;;;;;;;;7331307;19;161979;-13
2021/12/26 00:43:05;;;;;;;0.80;0.80;;;;;;;;;;7331323;19;162353;-15
2021/12/26 00:45:40;;;;;;;1.00;1.00;;;;;;;;;;7330188;19;154151;-19
2021/12/26 00:48:12;;;;;;;0.82;0.82;;;;;;;;;;7329946;19;154413;-15
2021/12/26 00:50:45;;;;;;;1.00;1.00;;;;;;;;;;7331016;19;161815;-13
2021/12/26 00:53:16;;;;;;;0.90;0.90;;;;;;;;;;7329747;19;162595;-13
2021/12/26 00:55:48;;;;;;;0.90;0.90;;;;;;;;;;7331334;19;154133;-14
2021/12/26 00:58:19;;;;;;;0.90;0.90;;;;;;;;;;7330983;19;153676;-13
2021/12/26 01:00:55;;;;;;;1.00;1.00;;;;;;;;;;7329664;19;162133;-13
2021/12/26 01:03:26;;;;;;;0.85;0.85;;;;;;;;;;7330847;19;162562;-14
2021/12/26 01:05:59;;;;;;;1.00;1.00;;;;;;;;;;7329423;19;154047;-13
2021/12/26 01:08:37;;;;;;;0.80;0.80;;;;;;;;;;7329458;19;153562;-13
2021/12/26 01:11:18;;;;;;;0.90;0.90;;;;;;;;;;7333973;19;162018;-14
2021/12/26 01:13:53;;;;;;;1.00;1.00;;;;;;;;;;7336129;19;162266;-13
2021/12/26 01:17:02;;;;;;;1.00;1.00;;;;;;;;;;7334502;19;154403;-14
2021/12/26 01:19:42;;;;;;;1.00;1.00;;;;;;;;;;7336143;19;153824;-14
2021/12/26 01:22:15;;;;;;;0.90;0.90;;;;;;;;;;7336091;19;161658;-14
2021/12/26 01:24:55;;;;;;;0.93;0.93;;;;;;;;;;7336164;19;162475;-13
2021/12/26 01:27:29;;;;;;;0.88;0.88;;;;;;;;;;7336432;19;154055;-14
2021/12/26 01:30:00;;;;;;;0.90;0.90;;;;;;;;;;7337435;19;153853;-14
2021/12/26 01:32:35;;;;;;;0.98;0.90;;;;;;;;;;7336196;19;161508;-14
2021/12/26 01:35:23;;;;;;;0.80;0.80;;;;;;;;;;7335768;19;162737;-14
2021/12/26 01:38:13;;;;;;;0.90;0.90;;;;;;;;;;7334253;19;154171;-14
2021/12/26 01:41:08;;;;;;;1.00;1.00;;;;;;;;;;7337057;19;153692;-15
2021/12/26 01:44:04;;;;;;;0.90;0.90;;;;;;;;;;7335570;19;162147;-14
2021/12/26 01:46:42;;;;;;;0.70;0.70;;;;;;;;;;7335397;19;162618;-14
2021/12/26 01:49:19;;;;;;;0.83;0.83;;;;;;;;;;7335272;19;154071;-15
2021/12/26 01:51:54;;;;;;;0.82;0.82;;;;;;;;;;7335360;19;153672;-14
2021/12/26 01:54:33;;;;;;;0.90;0.90;;;;;;;;;;7336689;19;161891;-15
2021/12/26 01:57:10;;;;;;;0.95;0.95;;;;;;;;;;7335716;19;162585;-13
2021/12/26 01:59:45;;;;;;;0.82;0.82;;;;;;;;;;7335673;19;154247;-14
2021/12/26 02:02:24;;;;;;;0.80;0.80;;;;;;;;;;7335113;19;153556;-14
2021/12/26 02:04:58;;;;;;;0.88;0.88;;;;;;;;;;7335090;19;161886;-13
2021/12/26 02:07:31;;;;;;;0.80;0.80;;;;;;;;;;7335405;19;162417;-14
2021/12/26 02:10:02;;;;;;;0.80;0.80;;;;;;;;;;7335839;19;154180;-13
2021/12/26 02:12:34;;;;;;;0.80;0.80;;;;;;;;;;7334563;19;153560;-14
2021/12/26 02:15:06;;;;;;;0.73;0.73;;;;;;;;;;7335157;19;162159;-14
2021/12/26 02:17:44;;;;;;;0.80;0.80;;;;;;;;;;7333276;19;162696;-14
2021/12/26 02:20:32;;;;;;;0.90;0.90;;;;;;;;;;7335299;19;153969;-13
2021/12/26 02:23:09;;;;;;;0.82;0.82;;;;;;;;;;7334479;19;155423;-14
2021/12/26 02:28:27;;;;;;;0.80;0.80;;;;;;;;;;7334659;19;162345;-14
2021/12/26 02:31:00;;;;;;;0.70;0.70;;;;;;;;;;7335446;19;154173;-13
2021/12/26 02:33:36;;;;;;;0.80;0.80;;;;;;;;;;7334430;19;153679;-14
2021/12/26 02:36:10;;;;;;;0.90;0.90;;;;;;;;;;7334189;19;161993;-14
2021/12/26 02:38:42;;;;;;;0.73;0.73;;;;;;;;;;7332069;19;162486;-13
2021/12/26 02:41:13;;;;;;;0.80;0.80;;;;;;;;;;7333968;19;154062;-13
2021/12/26 02:43:45;;;;;;;0.90;0.90;;;;;;;;;;7332968;19;154000;-13
2021/12/26 02:46:17;;;;;;;0.80;0.80;;;;;;;;;;7333790;19;161841;-13
2021/12/26 02:48:48;;;;;;;0.60;0.60;;;;;;;;;;7333595;19;162624;-12
2021/12/26 02:51:22;;;;;;;0.80;0.80;;;;;;;;;;7333560;19;154134;-14
2021/12/26 02:53:54;;;;;;;1.08;1.08;;;;;;;;;;7333201;19;153589;-13
2021/12/26 02:56:26;;;;;;;0.80;0.80;;;;;;;;;;7333846;19;161967;-13
2021/12/26 02:58:57;;;;;;;0.90;0.90;;;;;;;;;;7331530;19;163940;-13
2021/12/26 03:01:31;;;;;;;1.00;1.00;;;;;;;;;;7333446;19;154019;-13
2021/12/26 03:04:05;;;;;;;0.80;0.80;;;;;;;;;;7333289;19;153398;-20
2021/12/26 03:06:47;;;;;;;0.70;0.70;;;;;;;;;;7334332;19;162081;-13
2021/12/26 03:09:19;;;;;;;0.80;0.80;;;;;;;;;;7333179;19;162698;-14
2021/12/26 03:11:50;;;;;;;0.77;0.77;;;;;;;;;;7335007;19;154025;-13
2021/12/26 03:14:22;;;;;;;0.70;0.70;;;;;;;;;;7334467;19;153539;-13
2021/12/26 03:16:54;;;;;;;0.80;0.80;;;;;;;;;;7332819;19;162045;-14
2021/12/26 03:19:26;;;;;;;0.90;0.90;;;;;;;;;;7330849;19;162527;-15
2021/12/26 03:22:00;;;;;;;0.82;0.82;;;;;;;;;;7334246;19;154421;-13
2021/12/26 03:24:31;;;;;;;0.80;0.80;;;;;;;;;;7334024;19;153683;-13
2021/12/26 03:27:04;;;;;;;0.77;0.77;;;;;;;;;;7332696;19;161891;-13
2021/12/26 03:29:36;;;;;;;0.95;0.95;;;;;;;;;;7333984;19;162881;-14
2021/12/26 03:32:14;;;;;;;0.77;0.77;;;;;;;;;;7330531;19;154005;-13
2021/12/26 03:34:49;;;;;;;0.90;0.90;;;;;;;;;;7332980;19;153631;-13
2021/12/26 03:37:23;;;;;;;0.80;0.80;;;;;;;;;;7332515;19;161782;-13
2021/12/26 03:39:55;;;;;;;0.80;0.80;;;;;;;;;;7329318;19;162632;-14
2021/12/26 03:42:27;;;;;;;0.70;0.70;;;;;;;;;;7332740;19;154314;-15
2021/12/26 03:44:58;;;;;;;0.70;0.70;;;;;;;;;;7331208;19;153562;-14
2021/12/26 03:47:32;;;;;;;0.70;0.70;;;;;;;;;;7331907;19;161949;-14
2021/12/26 03:50:05;;;;;;;0.90;0.90;;;;;;;;;;7331713;19;162386;-14
2021/12/26 03:52:39;;;;;;;0.95;0.95;;;;;;;;;;7332393;19;154181;-14
2021/12/26 03:55:11;;;;;;;0.70;0.70;;;;;;;;;;7333661;19;153938;-14
2021/12/26 03:57:43;;;;;;;0.80;0.80;;;;;;;;;;7331730;19;161964;-14
2021/12/26 04:00:16;;;;;;;0.80;0.80;;;;;;;;;;7328624;19;162742;-14
2021/12/26 04:02:48;;;;;;;;;;;;;;;;;;7333593;19;154105;-14
2021/12/26 04:05:21;;;;;;;0.68;0.68;;;;;;;;;;7328669;19;153679;-15
2021/12/26 04:07:55;;;;;;;0.75;0.75;;;;;;;;;;7328180;19;161826;-14
2021/12/26 04:10:27;;;;;;;0.68;0.68;;;;;;;;;;7329013;19;162468;-14
2021/12/26 04:12:58;;;;;;;0.80;0.80;;;;;;;;;;7328316;19;154188;-14
2021/12/26 04:15:32;;;;;;;0.80;0.80;;;;;;;;;;7329497;19;153582;-14
2021/12/26 04:18:04;;;;;;;0.60;0.60;;;;;;;;;;7327965;19;161802;-14
2021/12/26 04:20:37;;;;;;;0.90;0.90;;;;;;;;;;7325041;19;162624;-15
2021/12/26 04:23:12;;;;;;;0.60;0.60;;;;;;;;;;7328110;19;154448;-14
2021/12/26 04:25:44;;;;;;;0.60;0.60;;;;;;;;;;7329098;19;153489;-15
2021/12/26 04:28:17;;;;;;;0.57;0.57;;;;;;;;;;7327749;19;161966;-15
2021/12/26 04:30:49;;;;;;;;;;;;;;;;;;7327656;19;162377;-15
2021/12/26 04:33:20;;;;;;;0.70;0.70;;;;;;;;;;7329025;19;154060;-14
2021/12/26 04:35:51;;;;;;;0.75;0.75;;;;;;;;;;7327444;19;153623;-15
2021/12/26 04:38:26;;;;;;;0.75;0.75;;;;;;;;;;7327410;19;161883;-14
2021/12/26 04:40:58;;;;;;;0.60;0.60;;;;;;;;;;7328333;19;162688;-15
2021/12/26 04:43:56;;;;;;;0.70;0.70;;;;;;;;;;7328279;19;154120;-15
2021/12/26 04:46:50;;;;;;;0.95;0.95;;;;;;;;;;7334889;19;154228;-15
2021/12/26 04:49:26;;;;;;;0.80;0.80;;;;;;;;;;7333935;19;162168;-15
2021/12/26 04:51:58;;;;;;;0.90;0.90;;;;;;;;;;7333805;19;162417;-14
2021/12/26 04:54:36;;;;;;;0.80;0.80;;;;;;;;;;7334132;19;154072;-14
2021/12/26 04:57:08;;;;;;;0.88;0.88;;;;;;;;;;7334092;19;153629;-15
2021/12/26 04:59:39;;;;;;;0.70;0.70;;;;;;;;;;7333797;19;161923;-15
2021/12/26 05:02:11;;;;;;;0.80;0.80;;;;;;;;;;7333641;19;162579;-14
2021/12/26 05:04:44;;;;;;;0.70;0.70;;;;;;;;;;7334133;19;154167;-15
2021/12/26 05:07:15;;;;;;;0.63;0.63;;;;;;;;;;7333746;19;153566;-15
2021/12/26 05:09:50;;;;;;;0.70;0.70;;;;;;;;;;7333387;19;162142;-14
2021/12/26 05:12:22;;;;;;;0.70;0.70;;;;;;;;;;7334458;19;162698;-15
2021/12/26 05:14:55;;;;;;;0.60;0.60;;;;;;;;;;7335012;19;154083;-15
2021/12/26 05:17:27;;;;;;;0.60;0.60;;;;;;;;;;7333647;19;153839;-16
2021/12/26 05:19:58;;;;;;;0.60;0.60;;;;;;;;;;7331929;19;161900;-14
2021/12/26 05:22:30;;;;;;;0.73;0.73;;;;;;;;;;7332962;19;162413;-15
2021/12/26 05:25:06;;;;;;;0.70;0.70;;;;;;;;;;7333291;19;154033;-14
2021/12/26 05:27:39;;;;;;;0.60;0.60;;;;;;;;;;7333101;19;153914;-14
2021/12/26 05:30:14;;;;;;;0.60;0.60;;;;;;;;;;7332839;19;161845;-15
2021/12/26 05:32:48;;;;;;;0.77;0.77;;;;;;;;;;7332425;19;162402;-14
2021/12/26 05:35:21;;;;;;;0.70;0.70;;;;;;;;;;7333209;19;154136;-14
2021/12/26 05:37:52;;;;;;;;;;;;;;;;;;7333544;19;153675;-15
2021/12/26 05:40:25;;;;;;;0.50;0.50;;;;;;;;;;7331312;19;162022;-14
2021/12/26 05:42:57;;;;;;;0.70;0.70;;;;;;;;;;7332402;19;162330;-15
2021/12/26 05:45:28;;;;;;;0.60;0.60;;;;;;;;;;7330209;19;154048;-14
2021/12/26 05:48:22;;;;;;;0.70;0.70;;;;;;;;;;7332900;19;153696;-18
2021/12/26 05:50:54;;;;;;;0.80;0.80;;;;;;;;;;7333145;19;161772;-14
2021/12/26 05:53:58;;;;;;;0.68;0.68;;;;;;;;;;7331323;19;162573;-15
2021/12/26 05:56:32;;;;;;;0.70;0.70;;;;;;;;;;7330543;19;154035;-14
2021/12/26 05:59:05;;;;;;;0.70;0.70;;;;;;;;;;7332145;19;153824;-14
2021/12/26 06:01:37;;;;;;;0.60;0.60;;;;;;;;;;7329692;19;162183;-14
2021/12/26 06:04:08;;;;;;;0.70;0.70;;;;;;;;;;7331715;19;162717;-14
2021/12/26 06:06:39;;;;;;;0.60;0.60;;;;;;;;;;7332036;19;154082;-14
2021/12/26 06:09:11;;;;;;;0.68;0.68;;;;;;;;;;7331973;19;154044;-14
2021/12/26 06:11:47;;;;;;;0.60;0.60;;;;;;;;;;7331349;19;161875;-14
2021/12/26 06:14:19;;;;;;;0.70;0.70;;;;;;;;;;7331419;19;162306;-14
2021/12/26 06:16:50;;;;;;;0.60;0.60;;;;;;;;;;7332961;19;154476;-14
2021/12/26 06:19:47;;;;;;;0.60;0.60;;;;;;;;;;7332439;19;153665;-14
2021/12/26 06:22:34;;;;;;;0.70;0.70;;;;;;;;;;7331060;19;161868;-14
2021/12/26 06:25:29;;;;;;;0.60;0.60;;;;;;;;;;7330564;19;162830;-13
2021/12/26 06:28:38;;;;;;;0.60;0.60;;;;;;;;;;7331434;19;154109;-16
2021/12/26 06:31:44;;;;;;;0.70;0.70;;;;;;;;;;7332412;19;153743;-15
2021/12/26 06:34:34;;;;;;;0.60;0.60;;;;;;;;;;7332226;19;161786;-14
2021/12/26 06:37:24;;;;;;;0.60;0.60;;;;;;;;;;7332118;19;162612;-14
2021/12/26 06:40:15;;;;;;;0.60;0.60;;;;;;;;;;7331812;19;154606;-14
2021/12/26 06:43:06;;;;;;;0.60;0.60;;;;;;;;;;7332119;19;153525;-14
2021/12/26 06:45:58;;;;;;;0.60;0.60;;;;;;;;;;7331593;19;161842;-13
2021/12/26 06:48:48;;;;;;;0.60;0.60;;;;;;;;;;7331518;19;162432;-14
2021/12/26 06:51:22;;;;;;;0.70;0.70;;;;;;;;;;7330811;19;153849;-13
2021/12/26 06:53:53;;;;;;;0.65;0.65;;;;;;;;;;7330597;19;153658;-13
2021/12/26 06:56:24;;;;;;;0.70;0.70;;;;;;;;;;7330860;19;161794;-14
2021/12/26 06:58:56;;;;;;;0.60;0.60;;;;;;;;;;7331412;19;162339;-13
2021/12/26 07:01:30;;;;;;;0.70;0.70;;;;;;;;;;7329057;19;154180;-14
2021/12/26 07:04:01;;;;;;;0.60;0.60;;;;;;;;;;7330428;19;153746;-13
2021/12/26 07:06:32;;;;;;;0.60;0.60;;;;;;;;;;7331293;19;161875;-14
2021/12/26 07:09:10;;;;;;;0.60;0.60;;;;;;;;;;7330158;19;162600;-16
2021/12/26 07:11:42;;;;;;;0.50;0.50;;;;;;;;;;7330545;19;154339;-14
2021/12/26 07:14:22;;;;;;;0.50;0.50;;;;;;;;;;7330012;19;153609;-14
2021/12/26 07:16:56;;;;;;;0.60;0.60;;;;;;;;;;7329940;19;162027;-14
2021/12/26 07:19:28;;;;;;;0.60;0.60;;;;;;;;;;7330891;19;162743;-14
2021/12/26 07:22:07;;;;;;;0.52;0.52;;;;;;;;;;7327935;19;154311;-14
2021/12/26 07:24:43;;;;;;;0.60;0.60;;;;;;;;;;7329666;19;153687;-14
2021/12/26 07:27:15;;;;;;;0.60;0.60;;;;;;;;;;7329428;19;161897;-15
2021/12/26 07:30:07;;;;;;;0.70;0.70;;;;;;;;;;7330465;19;163030;-15
2021/12/26 07:32:40;;;;;;;;;;;;;;;;;;7330261;19;154075;-15
2021/12/26 07:35:12;;;;;;;0.70;0.70;;;;;;;;;;7329722;19;153435;-14
2021/12/26 07:37:45;;;;;;;0.60;0.60;;;;;;;;;;7329372;19;162181;-13
2021/12/26 07:40:17;;;;;;;0.63;0.63;;;;;;;;;;7328989;19;162236;-14
2021/12/26 07:42:48;;;;;;;0.50;0.50;;;;;;;;;;7326742;19;154395;-14
2021/12/26 07:45:38;;;;;;;0.70;0.70;;;;;;;;;;7330212;19;154016;-15
2021/12/26 07:48:21;;;;;;;0.60;0.60;;;;;;;;;;7327471;19;134051;-16
2021/12/26 07:50:52;;;;;;;0.70;0.70;;;;;;;;;;7328807;19;162622;-13
2021/12/26 07:53:43;;;;;;;0.40;0.40;;;;;;;;;;7330147;19;154095;-14
2021/12/26 07:56:33;;;;;;;0.50;0.50;;;;;;;;;;7328843;19;153733;-13
2021/12/26 07:59:23;;;;;;;0.65;0.65;;;;;;;;;;7329823;19;162281;-14
2021/12/26 08:02:18;;;;;;;0.60;0.60;;;;;;;;;;7327717;19;162544;-14
2021/12/26 08:05:28;;;;;;;0.68;0.68;;;;;;;;;;7326828;19;154183;-13
2021/12/26 08:08:14;;;;;;;0.50;0.50;;;;;;;;;;7328192;19;153809;-13
2021/12/26 08:10:46;;;;;;;0.60;0.60;;;;;;;;;;7328194;19;162776;-14
2021/12/26 08:13:17;;;;;;;0.55;0.55;;;;;;;;;;7328042;19;162601;-13
2021/12/26 08:15:49;;;;;;;0.60;0.60;;;;;;;;;;7329716;19;154004;-13
2021/12/26 08:18:21;;;;;;;0.70;0.70;;;;;;;;;;7329385;19;153489;-13
2021/12/26 08:20:55;;;;;;;0.60;0.60;;;;;;;;;;7335998;19;161766;-14
2021/12/26 08:23:27;;;;;;;0.50;0.50;;;;;;;;;;7332413;19;162550;-14
2021/12/26 08:25:59;;;;;;;0.55;0.55;;;;;;;;;;7336342;19;154181;-14
2021/12/26 08:28:30;;;;;;;0.68;0.68;;;;;;;;;;7336151;19;153660;-13
2021/12/26 08:31:02;;;;;;;0.40;0.40;;;;;;;;;;7335503;19;161773;-15
2021/12/26 08:33:35;;;;;;;0.50;0.50;;;;;;;;;;7335429;19;162370;-14
2021/12/26 08:36:09;;;;;;;0.63;0.63;;;;;;;;;;7336032;19;154117;-14
2021/12/26 08:38:41;;;;;;;0.63;0.63;;;;;;;;;;7334701;19;153534;-16
2021/12/26 08:41:12;;;;;;;0.50;0.50;;;;;;;;;;7335496;19;161996;-15
2021/12/26 08:43:44;;;;;;;0.60;0.60;;;;;;;;;;7333813;19;162364;-16
2021/12/26 08:46:15;;;;;;;0.60;0.60;;;;;;;;;;7334777;19;154177;-14
2021/12/26 08:48:47;;;;;;;0.70;0.70;;;;;;;;;;7334897;19;153684;-13
2021/12/26 08:51:21;;;;;;;0.55;0.55;;;;;;;;;;7334882;19;161748;-14
2021/12/26 08:53:52;;;;;;;0.60;0.60;;;;;;;;;;7334996;19;162392;-15
2021/12/26 08:56:23;;;;;;;0.55;0.55;;;;;;;;;;7335283;19;154219;-14
2021/12/26 08:58:55;;;;;;;0.60;0.60;;;;;;;;;;7334063;19;153872;-14
2021/12/26 09:01:26;;;;;;;0.55;0.55;;;;;;;;;;7333454;19;161934;-14
2021/12/26 09:03:57;;;;;;;0.50;0.50;;;;;;;;;;7334478;19;162656;-14
2021/12/26 09:06:31;;;;;;;0.60;0.60;;;;;;;;;;7334624;19;154280;-14
2021/12/26 09:09:03;;;;;;;0.68;0.68;;;;;;;;;;7334690;19;153599;-14
2021/12/26 09:11:35;;;;;;;0.60;0.60;;;;;;;;;;7334768;19;161987;-14
2021/12/26 09:14:07;;;;;;;0.60;0.60;;;;;;;;;;7334318;19;162428;-14
2021/12/26 09:16:38;;;;;;;0.70;0.70;;;;;;;;;;7336410;19;154536;-14
2021/12/26 09:19:10;;;;;;;1.55;0.70;;;;;;;;;;7333104;19;153494;-15
2021/12/26 09:21:44;;;;;;;0.80;0.80;;;;;;;;;;7333891;19;161768;-15
2021/12/26 09:24:15;;;;;;;0.70;0.70;;;;;;;;;;7334049;19;162391;-15
2021/12/26 09:26:49;;;;;;;0.70;0.70;;;;;;;;;;7334416;19;154135;-16
2021/12/26 09:29:21;;;;;;;0.77;0.77;;;;;;;;;;7334199;19;153525;-14
2021/12/26 09:31:53;;;;;;;0.70;0.70;;;;;;;;;;7331202;19;161872;-15
2021/12/26 09:34:25;;;;;;;1.38;0.70;;;;;;;;;;7333842;19;162343;-16
2021/12/26 09:36:59;;;;;;;0.80;0.80;;;;;;;;;;7333949;19;153998;-16
2021/12/26 09:39:31;;;;;;;2.40;0.95;;;;;;;;;;7334031;19;153602;-16
2021/12/26 09:42:03;;;;;;;0.80;0.80;;;;;;;;;;7333265;19;162248;-15
2021/12/26 09:44:34;;;;;;;1.00;1.00;;;;;;;;;;7331534;19;162307;-16
2021/12/26 09:47:08;;;;;;;0.90;0.90;;;;;;;;;;7334574;19;154267;-15
2021/12/26 09:49:40;;;;;;;0.80;0.80;;;;;;;;;;7333560;19;153534;-16
2021/12/26 09:52:14;;;;;;;0.80;0.80;;;;;;;;;;7333252;19;162292;-15
2021/12/26 09:54:45;;;;;;;0.70;0.70;;;;;;;;;;7333026;19;162490;-16
2021/12/26 09:57:17;;;;;;;0.80;0.80;;;;;;;;;;7332158;19;154384;-16
2021/12/26 09:59:49;;;;;;;0.80;0.80;;;;;;;;;;7332064;19;153564;-16
2021/12/26 10:02:21;;;;;;;0.85;0.85;;;;;;;;;;7332802;19;161877;-15
2021/12/26 10:04:54;;;;;;;1.00;1.00;;;;;;;;;;7333197;19;162384;-15
2021/12/26 10:07:28;;;;;;;0.90;0.90;;;;;;;;;;7333479;19;153883;-15
2021/12/26 10:09:59;;;;;;;0.85;0.85;;;;;;;;;;7333488;19;153906;-16
2021/12/26 10:12:30;;;;;;;0.88;0.88;;;;;;;;;;7334680;19;161786;-13
2021/12/26 10:15:07;;;;;;;0.82;0.82;;;;;;;;;;7333641;19;162531;-16
2021/12/26 10:17:38;;;;;;;0.93;0.93;;;;;;;;;;7333236;19;154032;-12
2021/12/26 10:20:14;;;;;;;0.90;0.90;;;;;;;;;;7333173;19;153509;-15
2021/12/26 10:22:47;;;;;;;;;;;;;;;;;;7332878;19;162033;-15
2021/12/26 10:25:20;;;;;;;1.00;1.00;;;;;;;;;;7334469;19;162581;-15
2021/12/26 10:27:53;;;;;;;0.95;0.95;;;;;;;;;;7333081;19;154046;-17
2021/12/26 10:30:24;;;;;;;;;;;;;;;;;;7333353;19;153707;-14
2021/12/26 10:33:01;;;;;;;0.80;0.80;;;;;;;;;;7332658;19;161564;-15
2021/12/26 10:35:33;;;;;;;0.90;0.90;;;;;;;;;;7332341;19;162183;-15
2021/12/26 10:38:17;;;;;;;0.82;0.82;;;;;;;;;;7331498;19;154238;-15
2021/12/26 10:40:52;;;;;;;0.95;0.95;;;;;;;;;;7331220;19;153346;-15
2021/12/26 10:43:24;;;;;;;0.85;0.85;;;;;;;;;;7329101;19;161964;-15
2021/12/26 10:45:55;;;;;;;1.42;0.90;;;;;;;;;;7332131;19;162527;-14
2021/12/26 10:48:27;;;;;;;1.15;0.80;;;;;;;;;;7332530;19;154367;-14
2021/12/26 10:50:58;;;;;;;0.80;0.80;;;;;;;;;;7332185;19;153527;-15
2021/12/26 10:53:34;;;;;;;0.90;0.90;;;;;;;;;;7331705;19;161851;-16
2021/12/26 10:56:13;;;;;;;0.88;0.88;;;;;;;;;;7331739;19;162580;-18
2021/12/26 10:58:44;;;;;;;0.80;0.80;;;;;;;;;;7334242;19;154322;-14
2021/12/26 11:01:16;;;;;;;0.98;0.98;;;;;;;;;;7335372;19;153558;-14
2021/12/26 11:03:47;;;;;;;1.08;1.08;;;;;;;;;;7332402;19;162043;-14
2021/12/26 11:06:18;;;;;;;1.00;0.90;;;;;;;;;;7331312;19;162365;-14
2021/12/26 11:08:53;;;;;;;1.23;0.88;;;;;;;;;;7336666;19;156328;-15
2021/12/26 11:11:26;;;;;;;0.95;0.95;;;;;;;;;;7331645;19;153545;-14
2021/12/26 11:14:05;;;;;;;1.20;0.80;;;;;;;;;;7330143;19;162003;-16
2021/12/26 11:16:41;;;;;;;0.80;0.80;;;;;;;;;;7331387;19;162618;-14
2021/12/26 11:19:13;;;;;;;0.90;0.90;;;;;;;;;;7331367;19;153995;-14
2021/12/26 11:21:45;;;;;;;1.00;1.00;;;;;;;;;;7331378;19;153814;-15
2021/12/26 11:24:19;;;;;;;1.37;1.00;;;;;;;;;;7331257;19;163319;-14
2021/12/26 11:26:51;;;;;;;1.17;1.10;;;;;;;;;;7330827;19;162525;-14
2021/12/26 11:29:24;;;;;;;1.25;1.10;;;;;;;;;;7331161;19;154351;-14
2021/12/26 11:31:57;;;;;;;1.15;1.15;;;;;;;;;;7331233;19;153520;-14
2021/12/26 11:34:32;;;;;;;;;;;;;;;;;;7331018;19;161811;-14
2021/12/26 11:37:06;;;;;;;1.33;1.30;;;;;;;;;;7330481;19;162533;-15
2021/12/26 11:40:14;;;;;;;1.17;1.17;;;;;;;;;;7330502;19;154089;-14
2021/12/26 11:43:44;;;;;;;1.38;1.30;;;;;;;;;;7330153;19;153688;-14
2021/12/26 11:46:50;;;;;;;1.20;1.20;;;;;;;;;;7330097;19;161892;-15
2021/12/26 11:50:12;;;;;;;1.50;1.40;;;;;;;;;;7333181;19;162462;-13
2021/12/26 11:53:16;;;;;;;1.30;1.30;;;;;;;;;;7329954;19;154073;-14
2021/12/26 11:56:22;;;;;;;1.38;1.38;;;;;;;;;;7332638;19;153506;-14
2021/12/26 11:59:11;;;;;;;1.38;1.38;;;;;;;;;;7329556;19;161830;-14
2021/12/26 12:01:46;;;;;;;1.27;1.17;;;;;;;;;;7329413;19;162447;-14
2021/12/26 12:04:22;;;;;;;1.58;1.48;;;;;;;;;;7329005;19;154031;-14
2021/12/26 12:06:56;;;;;;;1.40;1.30;;;;;;;;;;7329805;19;153512;-14
2021/12/26 12:09:31;;;;;;;;;;;;;;;;;;7329607;19;161901;-14
2021/12/26 12:12:11;;;;;;;1.42;1.33;;;;;;;;;;7328898;19;162610;-14
2021/12/26 12:14:55;;;;;;;1.02;1.02;;;;;;;;;;7331870;19;154069;-15
2021/12/26 12:17:29;;;;;;;1.17;1.17;;;;;;;;;;7329421;19;154135;-14
2021/12/26 12:20:17;;;;;;;1.05;1.05;;;;;;;;;;7329046;19;161783;-14
2021/12/26 12:23:15;;;;;;;1.30;1.25;;;;;;;;;;7328619;19;162328;-14
2021/12/26 12:25:55;;;;;;;1.02;1.02;;;;;;;;;;7326964;19;153946;-14
2021/12/26 12:28:31;;;;;;;1.58;1.15;;;;;;;;;;7328166;19;153605;-14
2021/12/26 12:31:20;;;;;;;1.10;1.10;;;;;;;;;;7328514;19;161833;-14
2021/12/26 12:34:04;;;;;;;1.13;1.10;;;;;;;;;;7327421;19;162741;-14
2021/12/26 12:36:38;;;;;;;1.15;1.10;;;;;;;;;;7328961;19;153975;-13
2021/12/26 12:39:18;;;;;;;1.63;1.20;;;;;;;;;;7328615;19;153405;-13
2021/12/26 12:41:51;;;;;;;1.30;1.25;;;;;;;;;;7328241;19;161967;-14
2021/12/26 12:44:32;;;;;;;1.58;1.23;;;;;;;;;;7328657;19;162520;-14
2021/12/26 12:47:07;;;;;;;1.35;1.10;;;;;;;;;;7324925;19;153970;-15
2021/12/26 12:49:51;;;;;;;1.13;1.13;;;;;;;;;;7323570;19;153510;-14
2021/12/26 12:52:45;;;;;;;1.30;1.20;;;;;;;;;;7325758;19;161908;-14
2021/12/26 12:55:19;;;;;;;1.35;1.25;;;;;;;;;;7327159;19;162365;-14
2021/12/26 12:57:55;;;;;;;1.35;1.30;;;;;;;;;;7326816;19;154257;-14
2021/12/26 13:00:44;;;;;;;1.30;1.10;;;;;;;;;;7326654;19;154207;-13
2021/12/26 13:03:23;;;;;;;1.10;1.10;;;;;;;;;;7327410;19;161861;-14
2021/12/26 13:05:57;;;;;;;1.38;1.13;;;;;;;;;;7329292;19;162481;-14
2021/12/26 13:08:32;;;;;;;1.40;1.40;;;;;;;;;;7335209;19;154039;-16
2021/12/26 13:11:05;;;;;;;1.23;1.13;;;;;;;;;;7335056;19;153922;-15
2021/12/26 13:13:41;;;;;;;1.23;1.10;;;;;;;;;;7334908;19;161832;-17
2021/12/26 13:16:15;;;;;;;1.63;1.52;;;;;;;;;;7334505;19;162529;-14
2021/12/26 13:18:47;;;;;;;1.23;1.20;;;;;;;;;;7334935;19;154030;-14
2021/12/26 13:21:19;;;;;;;1.52;1.42;;;;;;;;;;7334781;19;153688;-14
2021/12/26 13:23:52;;;;;;;1.45;1.35;;;;;;;;;;7334504;19;161927;-14
2021/12/26 13:26:24;;;;;;;1.33;1.20;;;;;;;;;;7332415;19;162361;-15
2021/12/26 13:28:55;;;;;;;1.58;1.52;;;;;;;;;;7333631;19;154089;-14
2021/12/26 13:31:30;;;;;;;1.55;1.30;;;;;;;;;;7334569;19;153514;-15
2021/12/26 13:34:02;;;;;;;1.33;1.23;;;;;;;;;;7333959;19;161853;-14
2021/12/26 13:36:34;;;;;;;1.15;1.15;;;;;;;;;;7332694;19;162737;-14
2021/12/26 13:39:06;;;;;;;1.33;1.23;;;;;;;;;;7334306;19;154244;-14
2021/12/26 13:41:37;;;;;;;2.05;1.50;;;;;;;;;;7334178;19;153478;-15
2021/12/26 13:44:09;;;;;;;1.17;1.17;;;;;;;;;;7332696;19;161844;-14
2021/12/26 13:46:43;;;;;;;1.45;1.35;;;;;;;;;;7331665;19;162331;-14
2021/12/26 13:49:14;;;;;;;1.48;1.38;;;;;;;;;;7334134;19;154126;-15
2021/12/26 13:51:54;;;;;;;1.23;1.23;;;;;;;;;;7333822;19;153756;-19
2021/12/26 13:54:29;;;;;;;1.38;1.35;;;;;;;;;;7333074;19;161982;-15
2021/12/26 13:57:03;;;;;;;1.20;1.20;;;;;;;;;;7333599;19;162623;-14
2021/12/26 13:59:38;;;;;;;1.52;1.42;;;;;;;;;;7333955;19;154027;-15
2021/12/26 14:02:14;;;;;;;1.42;1.33;;;;;;;;;;7333004;19;153527;-14
2021/12/26 14:04:47;;;;;;;1.75;1.42;;;;;;;;;;7333147;19;161772;-15
2021/12/26 14:07:22;;;;;;;1.20;1.20;;;;;;;;;;7330483;19;162525;-14
2021/12/26 14:09:56;;;;;;;1.40;1.40;;;;;;;;;;7333792;19;154072;-15
2021/12/26 14:12:39;;;;;;;1.20;1.20;;;;;;;;;;7333507;19;153487;-14
2021/12/26 14:15:29;;;;;;;1.02;1.02;;;;;;;;;;7331789;19;161766;-16
2021/12/26 14:18:07;;;;;;;1.23;1.13;;;;;;;;;;7331422;19;162387;-17
2021/12/26 14:20:52;;;;;;;1.20;1.20;;;;;;;;;;7333475;19;154023;-16
2021/12/26 14:23:25;;;;;;;1.30;1.30;;;;;;;;;;7332858;19;154176;-16
2021/12/26 14:25:59;;;;;;;1.27;1.27;;;;;;;;;;7331718;19;161792;-15
2021/12/26 14:28:32;;;;;;;1.50;1.40;;;;;;;;;;7332214;19;162572;-16
2021/12/26 14:31:04;;;;;;;1.17;1.10;;;;;;;;;;7332789;19;153775;-14
2021/12/26 14:33:50;;;;;;;1.65;1.55;;;;;;;;;;7332407;19;153636;-14
2021/12/26 14:36:22;;;;;;;1.10;1.10;;;;;;;;;;7332091;19;161809;-15
2021/12/26 14:38:55;;;;;;;1.50;1.50;;;;;;;;;;7332158;19;162361;-14
2021/12/26 14:41:36;;;;;;;1.40;1.30;;;;;;;;;;7332249;19;154405;-14
2021/12/26 14:44:16;;;;;;;1.13;1.13;;;;;;;;;;7329510;19;153738;-14
2021/12/26 14:46:49;;;;;;;1.33;1.33;;;;;;;;;;7330088;19;161861;-14
2021/12/26 14:49:26;;;;;;;1.30;1.30;;;;;;;;;;7330607;19;162499;-14
2021/12/26 14:52:03;;;;;;;1.30;1.30;;;;;;;;;;7332018;19;154080;-15
2021/12/26 14:54:40;;;;;;;1.52;1.42;;;;;;;;;;7331753;19;153783;-15
2021/12/26 14:57:13;;;;;;;1.50;1.40;;;;;;;;;;7331575;19;161611;-14
2021/12/26 14:59:45;;;;;;;1.10;1.10;;;;;;;;;;7331294;19;162415;-15
2021/12/26 15:02:19;;;;;;;1.40;1.40;;;;;;;;;;7331735;19;154105;-13
2021/12/26 15:04:55;;;;;;;1.40;1.30;;;;;;;;;;7331622;19;153611;-18
2021/12/26 15:07:26;;;;;;;1.30;1.30;;;;;;;;;;7329163;19;161789;-14
2021/12/26 15:10:04;;;;;;;1.20;1.20;;;;;;;;;;7331170;19;162481;-14
2021/12/26 15:12:38;;;;;;;1.35;1.27;;;;;;;;;;7331489;19;153990;-13
2021/12/26 15:15:14;;;;;;;1.50;1.40;;;;;;;;;;7331214;19;153487;-14
2021/12/26 15:18:10;;;;;;;1.20;1.20;;;;;;;;;;7330780;19;161950;-15
2021/12/26 15:20:52;;;;;;;1.40;1.30;;;;;;;;;;7329913;19;162329;-14
2021/12/26 15:23:26;;;;;;;1.50;1.40;;;;;;;;;;7330852;19;154292;-14
2021/12/26 15:25:59;;;;;;;1.48;1.33;;;;;;;;;;7330643;19;153582;-15
2021/12/26 15:28:33;;;;;;;1.48;1.38;;;;;;;;;;7327348;19;162151;-14
2021/12/26 15:31:08;;;;;;;1.23;1.23;;;;;;;;;;7330347;19;162741;-14